Time;durP1;ratioP1;P1;durP2;ratioP2;P2;SDS_P1;SDS_P2;PMS_P1;PMS_P2;Temp;Humidity;BMP_temperature;BMP_pressure;BME280_temperature;BME280_humidity;BME280_pressure;Samples;Min_cycle;Max_cycle;Signal;HPM_P1;HPM_P2
2022/02/08 00:00:29;;;;;;;6.18;2.30;;;;;;;20.27;37.50;102304.13;5006684;28;20033;-66
2022/02/08 00:02:56;;;;;;;5.18;2.20;;;;;;;20.32;37.61;102303.72;5010973;28;20502;-66
2022/02/08 00:05:24;;;;;;;4.10;2.20;;;;;;;20.31;37.63;102304.69;5012532;28;20037;-66
2022/02/08 00:07:53;;;;;;;8.73;2.92;;;;;;;20.25;37.72;102306.09;5010486;28;20037;-66
2022/02/08 00:10:19;;;;;;;5.75;2.55;;;;;;;20.24;37.87;102304.44;5007919;28;20038;-66
2022/02/08 00:12:45;;;;;;;5.50;2.25;;;;;;;20.15;37.77;102292.94;5013832;28;20057;-66
2022/02/08 00:15:12;;;;;;;7.47;2.40;;;;;;;20.12;37.72;102287.09;5010303;28;20072;-66
2022/02/08 00:17:38;;;;;;;8.60;2.45;;;;;;;20.14;38.13;102303.66;5012978;28;20037;-65
2022/02/08 00:20:07;;;;;;;7.28;2.30;;;;;;;20.20;37.64;102311.84;5004508;28;20052;-66
2022/02/08 00:22:37;;;;;;;9.13;2.80;;;;;;;20.15;37.62;102303.50;5009831;28;20049;-66
2022/02/08 00:25:04;;;;;;;6.63;2.35;;;;;;;20.12;37.88;102302.97;5007017;28;20962;-66
2022/02/08 00:27:30;;;;;;;9.40;2.78;;;;;;;20.12;37.63;102295.88;5015562;28;20042;-66
2022/02/08 00:29:56;;;;;;;4.85;2.35;;;;;;;20.11;37.83;102301.31;5003714;28;20479;-66
2022/02/08 00:32:21;;;;;;;6.07;2.20;;;;;;;20.14;37.80;102298.38;5015864;28;20119;-66
2022/02/08 00:34:48;;;;;;;8.90;2.88;;;;;;;20.09;37.81;102300.59;5008407;28;20220;-66
2022/02/08 00:37:14;;;;;;;4.63;1.92;;;;;;;20.06;37.88;102288.50;5010303;28;20071;-66
2022/02/08 00:39:40;;;;;;;3.88;2.00;;;;;;;20.02;37.88;102288.94;5012394;28;20038;-66
2022/02/08 00:42:08;;;;;;;7.72;2.30;;;;;;;20.00;37.98;102290.91;5009952;28;20589;-66
2022/02/08 00:44:43;;;;;;;6.80;2.70;;;;;;;20.01;38.12;102288.13;5013941;28;20041;-67
2022/02/08 00:47:31;;;;;;;9.50;2.80;;;;;;;19.94;38.05;102279.13;5007431;28;20048;-67
2022/02/08 00:50:05;;;;;;;5.72;2.75;;;;;;;19.98;38.04;102290.22;5026594;28;20733;-67
2022/02/08 00:52:33;;;;;;;6.05;2.45;;;;;;;19.94;38.07;102287.03;5010542;28;20065;-66
2022/02/08 00:54:59;;;;;;;7.85;2.70;;;;;;;19.97;37.97;102283.28;5026199;28;20030;-66
2022/02/08 00:57:24;;;;;;;5.03;2.13;;;;;;;19.98;38.01;102282.28;5007568;28;20100;-66
2022/02/08 00:59:50;;;;;;;8.85;2.80;;;;;;;19.82;38.08;102275.81;5023310;28;20045;-66
2022/02/08 01:02:18;;;;;;;7.03;2.50;;;;;;;19.79;38.21;102280.56;5013164;28;20037;-67
2022/02/08 01:04:48;;;;;;;5.38;2.25;;;;;;;19.90;38.17;102291.75;5013749;28;20080;-66
2022/02/08 01:07:13;;;;;;;5.78;2.28;;;;;;;19.79;38.29;102288.50;5012841;28;20132;-66
2022/02/08 01:12:08;;;;;;;7.32;2.50;;;;;;;19.85;38.21;102282.63;5012519;28;20037;-66
2022/02/08 01:14:38;;;;;;;6.65;2.33;;;;;;;19.84;38.07;102276.50;5026695;28;20415;-66
2022/02/08 01:17:09;;;;;;;8.15;2.25;;;;;;;19.80;38.28;102280.41;5017558;28;20561;-66
2022/02/08 01:19:36;;;;;;;7.93;2.78;;;;;;;19.80;38.17;102282.22;5009081;28;20043;-66
2022/02/08 01:22:02;;;;;;;6.38;2.50;;;;;;;19.84;38.12;102276.50;5030493;28;20050;-66
2022/02/08 01:24:28;;;;;;;8.38;2.65;;;;;;;19.81;38.15;102271.50;5021952;28;20042;-66
2022/02/08 01:27:04;;;;;;;7.53;2.58;;;;;;;19.71;38.48;102268.03;5013136;28;20510;-66
2022/02/08 01:29:40;;;;;;;4.45;2.20;;;;;;;19.73;38.32;102262.63;5008295;28;20630;-66
2022/02/08 01:35:02;;;;;;;4.55;2.20;;;;;;;19.70;38.38;102262.91;5008807;28;20045;-67
2022/02/08 01:46:02;;;;;;;6.20;2.60;;;;;;;19.68;38.29;102255.13;5024092;28;20060;-66
2022/02/08 01:51:07;;;;;;;4.97;2.10;;;;;;;19.64;38.48;102256.41;5026806;28;20045;-66
2022/02/08 01:53:32;;;;;;;9.23;2.55;;;;;;;19.65;38.55;102255.41;5014699;28;20061;-66
2022/02/08 01:55:58;;;;;;;5.68;2.60;;;;;;;19.64;38.62;102261.69;5024956;28;20186;-66
2022/02/08 01:58:24;;;;;;;7.28;2.50;;;;;;;19.67;38.38;102255.28;5026851;28;20062;-66
2022/02/08 02:00:56;;;;;;;5.97;2.30;;;;;;;19.67;38.37;102252.63;5022649;28;20509;-66
2022/02/08 02:03:22;;;;;;;5.88;2.75;;;;;;;19.59;38.55;102258.66;5024902;28;20073;-67
2022/02/08 02:05:50;;;;;;;5.97;2.25;;;;;;;19.60;38.49;102250.56;5015553;28;20053;-66
2022/02/08 02:08:17;;;;;;;5.97;2.40;;;;;;;19.62;38.43;102247.78;5013713;28;20048;-66
2022/02/08 02:10:44;;;;;;;10.07;2.85;;;;;;;19.66;38.36;102249.16;5018303;28;20038;-66
2022/02/08 02:13:24;;;;;;;4.53;2.53;;;;;;;19.54;38.53;102245.00;5017147;28;20641;-67
2022/02/08 02:15:51;;;;;;;7.60;2.65;;;;;;;19.59;38.64;102250.72;5027310;28;20045;-66
2022/02/08 02:18:17;;;;;;;6.22;2.25;;;;;;;19.55;38.63;102251.97;5019479;28;20103;-66
2022/02/08 02:20:43;;;;;;;5.28;2.45;;;;;;;19.61;38.63;102248.75;5027483;28;20043;-67
2022/02/08 02:23:08;;;;;;;7.15;2.75;;;;;;;19.57;38.64;102240.28;5034291;28;20057;-66
2022/02/08 02:25:34;;;;;;;4.78;2.22;;;;;;;19.58;38.48;102231.38;5024740;28;20044;-66
2022/02/08 02:28:03;;;;;;;5.78;2.13;;;;;;;19.57;38.64;102228.88;5014628;28;20091;-66
2022/02/08 02:30:34;;;;;;;7.00;2.83;;;;;;;19.56;38.66;102229.84;5016727;28;20608;-66
2022/02/08 02:33:04;;;;;;;5.78;2.40;;;;;;;19.51;38.72;102222.31;5030273;28;20125;-66
2022/02/08 02:35:32;;;;;;;5.63;2.20;;;;;;;19.50;38.64;102220.66;5016216;28;20088;-66
2022/02/08 02:38:04;;;;;;;7.78;2.33;;;;;;;19.53;38.64;102230.09;5029504;28;20503;-67
2022/02/08 02:40:32;;;;;;;5.00;2.60;;;;;;;19.47;38.88;102231.50;5032464;28;20032;-67
2022/02/08 02:43:00;;;;;;;3.60;2.25;;;;;;;19.50;38.76;102230.38;5028907;28;20479;-67
2022/02/08 02:45:28;;;;;;;6.07;2.47;;;;;;;19.47;38.80;102228.03;5026033;28;20259;-66
2022/02/08 02:47:55;;;;;;;6.82;3.15;;;;;;;19.46;38.82;102227.22;5024465;28;20034;-67
2022/02/08 02:50:24;;;;;;;5.10;2.15;;;;;;;19.48;38.73;102217.34;5030478;28;20127;-67
2022/02/08 02:52:52;;;;;;;4.43;2.10;;;;;;;19.45;38.71;102214.97;5008239;28;20041;-66
2022/02/08 02:55:19;;;;;;;5.57;2.72;;;;;;;19.41;38.90;102213.59;5031153;28;20112;-66
2022/02/08 02:57:48;;;;;;;6.88;2.50;;;;;;;19.44;38.79;102210.69;5027911;28;20045;-66
2022/02/08 03:00:33;;;;;;;6.30;2.33;;;;;;;19.46;38.92;102215.81;5014984;28;20049;-66
2022/02/08 03:19:42;;;;;;;7.22;2.30;;;;;;;19.37;38.93;102214.84;5011537;28;20503;-67
2022/02/08 03:22:08;;;;;;;5.43;2.47;;;;;;;19.41;38.78;102212.78;5028113;28;20049;-67
2022/02/08 03:24:34;;;;;;;3.55;1.98;;;;;;;19.38;39.03;102202.47;5027544;28;20120;-66
2022/02/08 03:27:00;;;;;;;5.43;2.30;;;;;;;19.33;39.01;102200.28;5026020;28;20459;-66
2022/02/08 03:29:27;;;;;;;7.18;3.00;;;;;;;19.37;39.05;102206.91;5016885;28;20052;-67
2022/02/08 03:31:53;;;;;;;3.65;2.30;;;;;;;19.36;38.85;102202.63;5025774;28;20037;-67
2022/02/08 03:34:21;;;;;;;7.03;2.30;;;;;;;19.33;38.95;102206.38;5017434;28;20043;-67
2022/02/08 03:36:48;;;;;;;6.20;2.30;;;;;;;19.31;39.04;102210.97;5023441;28;20040;-66
2022/02/08 03:39:21;;;;;;;5.00;2.45;;;;;;;19.26;39.07;102189.44;5016186;28;20048;-67
2022/02/08 03:42:06;;;;;;;4.93;2.90;;;;;;;19.31;39.05;102218.91;5008693;28;20052;-67
2022/02/08 03:44:34;;;;;;;9.13;2.50;;;;;;;19.30;38.96;102222.53;5017428;28;20036;-67
2022/02/08 03:47:06;;;;;;;4.38;2.17;;;;;;;19.29;39.12;102212.09;5027467;28;20117;-67
2022/02/08 03:49:33;;;;;;;4.95;2.03;;;;;;;19.30;39.11;102203.19;5024483;28;20376;-67
2022/02/08 03:52:04;;;;;;;3.90;2.20;;;;;;;19.31;38.98;102218.06;5024034;28;20037;-67
2022/02/08 03:54:33;;;;;;;8.02;2.45;;;;;;;19.33;39.06;102208.19;5025716;28;20734;-67
2022/02/08 03:56:59;;;;;;;6.38;2.58;;;;;;;19.32;39.38;102204.72;5017344;28;20057;-67
2022/02/08 03:59:25;;;;;;;4.40;2.13;;;;;;;19.33;38.98;102206.38;5011591;28;20123;-67
2022/02/08 04:07:00;;;;;;;7.25;2.50;;;;;;;19.27;39.20;102206.13;5014370;28;20044;-67
2022/02/08 04:09:25;;;;;;;6.43;2.45;;;;;;;19.35;39.10;102214.16;5016320;28;21571;-67
2022/02/08 04:12:05;;;;;;;6.68;2.45;;;;;;;19.22;39.18;102193.38;5018812;28;20033;-67
2022/02/08 04:14:43;;;;;;;5.30;2.13;;;;;;;19.26;39.37;102210.59;5014072;28;20049;-67
2022/02/08 04:41:19;;;;;;;3.85;2.15;;;;;;;19.19;39.31;102214.75;5016508;28;20041;-67
2022/02/08 04:43:59;;;;;;;7.07;2.40;;;;;;;19.20;39.38;102211.13;5015642;28;20132;-67
2022/02/08 04:48:55;;;;;;;7.55;3.05;;;;;;;19.17;39.29;102210.59;5009911;28;20058;-67
2022/02/08 04:54:18;;;;;;;6.40;2.60;;;;;;;19.16;39.42;102206.28;5013995;28;20840;-67
2022/02/08 05:02:28;;;;;;;4.90;2.03;;;;;;;19.16;39.44;102211.56;5014025;28;20049;-67
2022/02/08 05:34:26;;;;;;;6.60;2.38;;;;;;;19.05;39.60;102209.09;5017653;28;20856;-67
2022/02/08 05:44:55;;;;;;;4.60;1.98;;;;;;;19.08;39.49;102227.28;5016472;28;20057;-67
2022/02/08 05:47:21;;;;;;;5.40;2.55;;;;;;;19.12;39.47;102216.31;5021266;28;20053;-67
2022/02/08 05:50:07;;;;;;;4.78;2.30;;;;;;;19.26;39.32;102220.31;5014613;28;20143;-67
2022/02/08 05:52:51;;;;;;;7.30;2.40;;;;;;;19.81;38.40;102220.44;5022824;28;20128;-67
2022/02/08 05:55:17;;;;;;;5.20;2.30;;;;;;;20.03;38.20;102221.88;5019255;28;20056;-67
2022/02/08 05:57:43;;;;;;;5.97;2.10;;;;;;;20.51;37.46;102219.78;5028708;28;20668;-66
2022/02/08 06:00:11;;;;;;;3.30;1.75;;;;;;;20.88;37.00;102215.31;5013396;28;20460;-67
2022/02/08 06:02:48;;;;;;;5.50;2.20;;;;;;;21.25;36.38;102202.72;5032287;28;20041;-67
2022/02/08 06:05:22;;;;;;;4.93;2.20;;;;;;;21.34;36.38;102200.94;5026919;28;20798;-66
2022/02/08 06:07:47;;;;;;;4.32;2.00;;;;;;;21.32;36.56;102201.09;5016375;28;20040;-66
2022/02/08 06:10:13;;;;;;;5.38;2.72;;;;;;;21.09;36.91;102184.84;5016728;28;20053;-66
2022/02/08 06:12:48;;;;;;;4.00;2.00;;;;;;;21.04;37.21;102195.09;5017826;28;20025;-66
2022/02/08 06:15:22;;;;;;;4.05;1.75;;;;;;;20.83;37.44;102185.81;5025759;28;20045;-67
2022/02/08 06:17:48;;;;;;;3.72;1.90;;;;;;;20.65;37.85;102202.56;5028784;28;20153;-66
2022/02/08 06:20:15;;;;;;;3.60;1.95;;;;;;;20.62;37.56;102202.00;5020591;28;20104;-67
2022/02/08 06:22:42;;;;;;;4.43;2.20;;;;;;;20.45;38.25;102188.63;5014374;28;20072;-66
2022/02/08 06:25:11;;;;;;;4.25;2.05;;;;;;;20.44;38.47;102191.41;5027411;28;20041;-66
2022/02/08 06:27:37;;;;;;;4.28;2.20;;;;;;;20.46;38.42;102184.16;5017013;28;20054;-67
2022/02/08 06:30:03;;;;;;;4.20;2.00;;;;;;;20.62;38.20;102194.06;5013923;28;20056;-67
2022/02/08 06:32:32;;;;;;;5.35;2.00;;;;;;;20.77;37.96;102187.25;5012983;28;20059;-67
2022/02/08 06:34:59;;;;;;;4.63;1.80;;;;;;;20.90;37.76;102185.03;5016174;28;20150;-67
2022/02/08 06:37:26;;;;;;;3.38;1.85;;;;;;;20.99;37.61;102193.88;5011766;28;20844;-67
2022/02/08 06:39:52;;;;;;;5.80;2.10;;;;;;;20.93;37.60;102189.19;5010320;28;20125;-67
2022/02/08 06:42:17;;;;;;;6.47;2.08;;;;;;;20.96;37.62;102196.84;5031743;28;20030;-67
2022/02/08 06:44:43;;;;;;;3.80;1.95;;;;;;;21.02;37.64;102202.34;5015806;28;20029;-67
2022/02/08 06:47:08;;;;;;;4.10;1.98;;;;;;;21.06;37.53;102195.75;5022390;28;20037;-67
2022/02/08 06:49:34;;;;;;;4.43;2.08;;;;;;;21.05;37.58;102201.22;5013101;28;20041;-67
2022/02/08 06:52:00;;;;;;;4.18;1.92;;;;;;;21.02;38.07;102188.28;5018756;28;20033;-66
2022/02/08 06:54:25;;;;;;;4.35;2.30;;;;;;;20.95;37.93;102200.47;5032702;28;20522;-67
2022/02/08 06:56:51;;;;;;;6.60;2.13;;;;;;;20.92;37.89;102201.59;5015300;28;20041;-66
2022/02/08 06:59:18;;;;;;;9.00;2.42;;;;;;;20.91;38.03;102207.88;5017292;28;20095;-66
2022/02/08 07:01:45;;;;;;;4.13;2.10;;;;;;;20.97;37.66;102201.97;5016615;28;20156;-67
2022/02/08 07:04:14;;;;;;;3.75;1.92;;;;;;;21.03;37.69;102217.25;5019847;28;20268;-67
2022/02/08 07:06:44;;;;;;;6.10;2.20;;;;;;;21.05;37.63;102204.69;5018669;28;20053;-66
2022/02/08 07:09:11;;;;;;;5.47;1.85;;;;;;;21.07;37.65;102215.97;5016046;28;20037;-67
2022/02/08 07:11:37;;;;;;;5.15;1.90;;;;;;;21.05;37.42;102203.88;5016690;28;20092;-67
2022/02/08 07:14:05;;;;;;;5.13;2.08;;;;;;;21.09;37.49;102214.00;5015811;28;20033;-67
2022/02/08 07:16:30;;;;;;;6.63;2.22;;;;;;;21.04;37.52;102213.63;5015862;28;20052;-67
2022/02/08 07:18:56;;;;;;;2.83;1.60;;;;;;;21.04;37.56;102220.75;5017171;28;20032;-67
2022/02/08 07:21:21;;;;;;;4.32;2.20;;;;;;;21.06;37.50;102226.72;5025403;28;20049;-66
2022/02/08 07:23:48;;;;;;;4.38;1.90;;;;;;;21.10;37.62;102228.88;5018255;28;20049;-66
2022/02/08 07:26:13;;;;;;;3.35;1.95;;;;;;;21.04;37.62;102226.03;5009018;28;20048;-67
2022/02/08 07:28:42;;;;;;;5.20;2.20;;;;;;;21.04;37.81;102223.41;5008584;28;20049;-67
2022/02/08 07:31:18;;;;;;;5.20;2.20;;;;;;;21.14;37.58;102221.47;5009494;28;20042;-66
2022/02/08 07:34:33;;;;;;;6.57;2.05;;;;;;;21.22;37.38;102229.47;5015393;28;20034;-67
2022/02/08 07:39:03;;;;;;;4.00;1.90;;;;;;;20.94;37.84;102212.03;5006373;28;21152;-67
2022/02/08 07:41:42;;;;;;;5.15;1.75;;;;;;;21.15;37.67;102222.28;5016521;28;20436;-64
2022/02/08 07:44:10;;;;;;;7.13;2.40;;;;;;;21.18;37.71;102229.94;5006641;28;20807;-65
2022/02/08 07:46:42;;;;;;;4.18;2.00;;;;;;;21.25;37.49;102229.19;5014055;28;20044;-65
2022/02/08 07:49:09;;;;;;;7.72;2.00;;;;;;;21.30;37.54;102218.13;5013096;28;20037;-64
2022/02/08 07:51:38;;;;;;;6.22;2.08;;;;;;;21.21;37.34;102201.34;5012460;28;20517;-65
2022/02/08 07:54:04;;;;;;;7.80;1.80;;;;;;;21.27;37.33;102210.50;5013809;28;20053;-65
2022/02/08 07:56:30;;;;;;;5.25;2.08;;;;;;;21.24;37.62;102216.94;5013629;28;20053;-65
2022/02/08 07:58:57;;;;;;;4.75;1.92;;;;;;;21.20;37.45;102223.50;5009314;28;20526;-65
2022/02/08 08:01:22;;;;;;;7.07;2.28;;;;;;;21.13;37.69;102215.34;5020445;28;20033;-65
2022/02/08 08:03:48;;;;;;;5.07;2.40;;;;;;;21.10;37.63;102230.72;5016266;28;20033;-65
2022/02/08 08:06:16;;;;;;;5.35;2.20;;;;;;;21.09;37.58;102215.81;5005841;28;20420;-65
2022/02/08 08:08:42;;;;;;;7.00;2.20;;;;;;;21.07;37.81;102221.25;5017436;28;20032;-65
2022/02/08 08:11:15;;;;;;;4.97;2.33;;;;;;;21.02;37.98;102225.38;5009222;28;20037;-65
2022/02/08 08:13:48;;;;;;;6.40;2.05;;;;;;;21.04;37.81;102216.28;5013969;28;20049;-65
2022/02/08 08:16:23;;;;;;;6.10;2.10;;;;;;;21.03;37.99;102216.44;5008959;28;20044;-65
2022/02/08 08:19:01;;;;;;;5.25;2.05;;;;;;;20.93;38.05;102211.22;5010028;28;20045;-65
2022/02/08 08:21:27;;;;;;;6.03;2.30;;;;;;;20.84;37.85;102196.25;5012456;28;20049;-65
2022/02/08 08:23:53;;;;;;;4.07;1.83;;;;;;;20.94;38.03;102225.28;5013505;28;20088;-64
2022/02/08 08:26:20;;;;;;;5.72;2.15;;;;;;;20.98;37.67;102227.47;5009461;28;20328;-65
2022/02/08 08:28:46;;;;;;;4.15;1.80;;;;;;;21.16;37.50;102218.66;5013189;28;20034;-64
2022/02/08 08:31:13;;;;;;;9.25;2.22;;;;;;;21.27;37.55;102221.09;5007571;28;20032;-65
2022/02/08 08:33:39;;;;;;;6.35;2.20;;;;;;;21.22;37.44;102233.94;5018301;28;20406;-65
2022/02/08 08:36:06;;;;;;;4.07;1.70;;;;;;;21.26;37.48;102232.69;5013096;28;20052;-65
2022/02/08 08:38:33;;;;;;;2.72;1.65;;;;;;;21.24;37.56;102239.91;5017607;28;20042;-65
2022/02/08 08:43:45;;;;;;;5.25;1.88;;;;;;;21.31;37.38;102238.34;5014524;28;20087;-66
2022/02/08 08:51:44;;;;;;;4.28;1.83;;;;;;;20.73;39.28;102258.22;5006676;28;20495;-69
2022/02/08 08:54:10;;;;;;;7.50;2.47;;;;;;;20.86;39.28;102259.66;5025086;28;20053;-72
2022/02/08 08:56:38;;;;;;;6.72;2.50;;;;;;;20.88;39.36;102263.81;5010484;28;20045;-69
2022/02/08 08:59:06;;;;;;;6.07;2.00;;;;;;;20.86;39.46;102255.19;5014520;28;20235;-69
2022/02/08 09:01:32;;;;;;;6.28;2.22;;;;;;;20.96;39.29;102266.50;5006099;28;20654;-68
2022/02/08 09:03:58;;;;;;;7.47;1.95;;;;;;;21.11;39.07;102238.50;5004813;28;20038;-67
2022/02/08 09:06:23;;;;;;;4.78;1.88;;;;;;;21.14;39.10;102247.94;5010296;28;20045;-67
2022/02/08 09:08:49;;;;;;;4.38;1.95;;;;;;;21.05;39.43;102241.78;5010547;28;20049;-73
2022/02/08 09:11:36;;;;;;;5.70;2.40;;;;;;;21.08;39.33;102235.34;5037506;28;20228;-72
2022/02/08 09:14:09;;;;;;;4.07;1.60;;;;;;;21.21;39.17;102234.94;5016605;28;20525;-65
2022/02/08 09:16:42;;;;;;;5.63;2.13;;;;;;;21.26;38.99;102251.22;5016392;28;20045;-67
2022/02/08 09:29:41;;;;;;;6.13;1.75;;;;;;;21.29;38.97;102254.38;4983623;28;20049;-72
2022/02/08 09:32:44;;;;;;;5.53;2.13;;;;;;;21.31;39.04;102246.28;5016949;28;20034;-69
2022/02/08 09:34:58;;;;;;;6.47;2.00;;;;;;;21.17;38.98;102222.97;4982160;28;20123;-67
2022/02/08 09:37:24;;;;;;;7.70;2.33;;;;;;;21.34;38.78;102233.56;5011840;28;20045;-69
2022/02/08 09:39:52;;;;;;;7.03;2.13;;;;;;;21.48;38.59;102232.16;5015833;28;20114;-65
2022/02/08 09:42:19;;;;;;;9.73;2.92;;;;;;;21.44;38.87;102244.06;4990026;28;20669;-71
2022/02/08 09:44:45;;;;;;;5.95;2.28;;;;;;;21.52;38.88;102233.50;5012776;28;20038;-72
2022/02/08 09:47:17;;;;;;;8.18;2.20;;;;;;;21.56;38.98;102234.88;5012703;28;20042;-66
2022/02/08 09:49:53;;;;;;;7.30;2.03;;;;;;;21.55;39.15;102248.28;5018606;28;20042;-65
2022/02/08 09:52:20;;;;;;;5.95;2.20;;;;;;;21.57;39.05;102248.94;4993973;28;20042;-67
2022/02/08 09:54:46;;;;;;;8.85;2.38;;;;;;;21.60;39.30;102251.28;5020834;28;20060;-70
2022/02/08 09:57:13;;;;;;;7.28;1.83;;;;;;;21.60;39.13;102238.03;5002507;28;20050;-74
2022/02/08 09:59:38;;;;;;;5.20;2.10;;;;;;;21.59;39.21;102245.16;5016249;28;20111;-68
2022/02/08 10:02:04;;;;;;;4.65;1.95;;;;;;;21.71;38.88;102253.66;4999610;28;20052;-68
2022/02/08 10:04:30;;;;;;;7.53;2.17;;;;;;;21.69;39.00;102256.47;5010717;28;20486;-68
2022/02/08 10:07:08;;;;;;;7.32;2.08;;;;;;;21.68;39.22;102248.66;4995790;28;20333;-68
2022/02/08 10:09:34;;;;;;;9.45;2.35;;;;;;;21.70;39.09;102255.47;5010611;28;20032;-67
2022/02/08 10:11:59;;;;;;;7.10;1.73;;;;;;;21.69;39.34;102264.41;5017293;28;20041;-67
2022/02/08 10:14:39;;;;;;;6.18;2.05;;;;;;;21.75;39.23;102262.13;4982226;28;20064;-69
2022/02/08 10:22:40;;;;;;;5.78;2.22;;;;;;;21.87;38.88;102271.47;4995416;28;20552;-72
2022/02/08 10:25:09;;;;;;;6.03;1.92;;;;;;;21.87;39.25;102264.34;5013437;28;20029;-70
2022/02/08 10:27:38;;;;;;;7.25;2.45;;;;;;;21.91;38.87;102267.53;5016940;28;20536;-68
2022/02/08 10:38:47;;;;;;;5.40;1.85;;;;;;;21.87;39.49;102274.94;5019765;28;20067;-69
2022/02/08 10:41:14;;;;;;;6.03;2.47;;;;;;;21.99;39.00;102268.38;4998998;28;20104;-70
2022/02/08 10:43:42;;;;;;;8.13;2.00;;;;;;;22.01;38.92;102268.22;5020509;28;20522;-73
2022/02/08 10:46:21;;;;;;;4.53;1.52;;;;;;;22.06;39.07;102260.63;5018651;28;20300;-79
2022/02/08 10:48:58;;;;;;;8.32;2.00;;;;;;;21.99;39.21;102265.72;5015031;28;20041;-70
2022/02/08 10:51:24;;;;;;;5.63;1.95;;;;;;;21.95;39.25;102263.56;5006807;28;20064;-73
2022/02/08 10:53:56;;;;;;;7.88;2.00;;;;;;;21.97;39.48;102267.72;5017341;28;20357;-69
2022/02/08 10:56:26;;;;;;;3.60;1.67;;;;;;;22.04;38.94;102262.59;5009127;28;20061;-77
2022/02/08 10:59:06;;;;;;;6.10;1.80;;;;;;;22.11;38.91;102260.19;5008972;28;20493;-70
2022/02/08 11:01:35;;;;;;;7.15;1.90;;;;;;;22.10;38.72;102271.78;5013460;28;20052;-73
2022/02/08 11:04:12;;;;;;;6.22;1.98;;;;;;;22.12;38.80;102272.44;5002956;28;20477;-67
2022/02/08 11:07:09;;;;;;;3.70;1.90;;;;;;;22.12;38.98;102262.66;5019745;28;23124;-69
2022/02/08 11:09:44;;;;;;;3.47;1.60;;;;;;;22.06;38.98;102273.06;4999475;28;20036;-65
2022/02/08 11:20:39;;;;;;;3.45;1.55;;;;;;;22.05;39.20;102290.81;4987903;28;20625;-68
2022/02/08 11:23:31;;;;;;;5.63;1.98;;;;;;;22.02;38.99;102283.97;5008440;28;20144;-66
2022/02/08 11:25:57;;;;;;;4.45;1.95;;;;;;;22.01;39.01;102292.09;5014282;28;20100;-66
2022/02/08 11:31:25;;;;;;;6.68;1.52;;;;;;;21.86;39.25;102293.66;5000435;28;20454;-66
2022/02/08 11:53:12;;;;;;;3.97;1.90;;;;;;;21.86;39.09;102283.88;4984829;28;20122;-64
2022/02/08 11:58:21;;;;;;;3.17;1.52;;;;;;;21.83;38.76;102286.03;5015711;28;20360;-65
2022/02/08 12:01:00;;;;;;;5.28;1.98;;;;;;;21.85;38.83;102287.53;4986676;28;20366;-63
2022/02/08 12:08:41;;;;;;;6.93;1.80;;;;;;;21.63;39.10;102291.56;4989088;28;20033;-64
2022/02/08 12:11:31;;;;;;;6.47;1.60;;;;;;;21.54;39.28;102295.13;5005740;28;20033;-63
2022/02/08 12:27:03;;;;;;;4.63;1.30;;;;;;;21.52;39.53;102302.41;5010923;28;20092;-64
2022/02/08 12:33:11;;;;;;;3.90;1.73;;;;;;;21.90;39.28;102302.97;4986054;28;20242;-72
2022/02/08 12:57:33;;;;;;;4.07;1.67;;;;;;;22.18;39.02;102293.03;5006946;28;20120;-66
2022/02/08 13:00:25;;;;;;;9.02;1.70;;;;;;;22.25;39.19;102292.22;4988061;28;20050;-66
2022/02/08 14:24:01;;;;;;;6.25;2.13;;;;;;;21.17;41.32;102353.59;5014489;28;20564;-64
2022/02/08 14:29:29;;;;;;;8.40;2.15;;;;;;;21.10;41.61;102353.38;5016990;28;20054;-64
2022/02/08 15:07:18;;;;;;;9.00;2.20;;;;;;;20.94;41.47;102360.34;5004702;28;20135;-63
2022/02/08 15:09:48;;;;;;;5.15;1.88;;;;;;;20.89;41.53;102365.25;4987954;28;20332;-63
2022/02/08 15:12:18;;;;;;;5.28;2.05;;;;;;;20.92;41.45;102360.50;5017434;28;20044;-63
2022/02/08 15:14:49;;;;;;;8.23;1.90;;;;;;;21.03;41.13;102367.41;4993435;28;20037;-63
2022/02/08 15:17:15;;;;;;;5.13;2.00;;;;;;;20.93;41.39;102367.44;5019595;28;20452;-64
2022/02/08 15:19:43;;;;;;;7.00;2.00;;;;;;;20.91;41.50;102371.22;4990950;28;20367;-63
2022/02/08 15:22:09;;;;;;;7.40;2.33;;;;;;;20.90;41.38;102367.75;5019227;28;20124;-63
2022/02/08 15:24:36;;;;;;;9.23;2.20;;;;;;;20.92;41.23;102372.91;4996974;28;20046;-63
2022/02/08 15:27:03;;;;;;;5.45;2.17;;;;;;;20.98;41.25;102369.63;5003773;28;20045;-63
2022/02/08 15:29:30;;;;;;;9.50;2.92;;;;;;;20.97;41.21;102378.56;5027615;28;20113;-63
2022/02/08 15:31:56;;;;;;;7.15;2.08;;;;;;;20.92;41.21;102370.25;4996367;28;20144;-63
2022/02/08 15:34:22;;;;;;;7.03;2.17;;;;;;;20.87;41.25;102373.34;5012296;28;20045;-63
2022/02/08 15:36:47;;;;;;;6.32;2.20;;;;;;;20.83;41.36;102372.00;4992801;28;20510;-59
2022/02/08 15:39:13;;;;;;;3.63;1.75;;;;;;;20.83;41.21;102371.16;5015938;28;21625;-63
2022/02/08 15:41:40;;;;;;;7.90;2.65;;;;;;;20.94;40.93;102369.13;5000957;28;20045;-64
2022/02/08 15:44:13;;;;;;;10.82;2.53;;;;;;;20.96;40.85;102371.59;5013815;28;20404;-63
2022/02/08 15:46:39;;;;;;;5.35;2.10;;;;;;;20.88;40.95;102368.88;5006790;28;20111;-63
2022/02/08 15:49:05;;;;;;;6.38;2.10;;;;;;;20.79;41.04;102366.13;5018640;28;20091;-63
2022/02/08 15:51:37;;;;;;;6.60;1.95;;;;;;;20.72;41.10;102370.38;4993432;28;20073;-63
2022/02/08 16:08:01;;;;;;;6.38;1.90;;;;;;;20.91;40.69;102369.41;4997327;28;20057;-63
2022/02/08 16:10:36;;;;;;;4.47;1.98;;;;;;;20.80;40.81;102364.31;5013756;28;20068;-63
2022/02/08 16:18:33;;;;;;;6.03;1.95;;;;;;;20.80;40.69;102372.25;5019414;28;20490;-63
2022/02/08 16:21:28;;;;;;;7.55;2.15;;;;;;;20.86;40.58;102370.84;4990741;28;20279;-63
2022/02/08 16:26:34;;;;;;;8.32;2.42;;;;;;;20.77;40.78;102376.03;4988916;28;20041;-63
2022/02/08 16:29:20;;;;;;;7.82;2.30;;;;;;;20.66;40.70;102375.44;5005285;28;20521;-63
2022/02/08 16:51:19;;;;;;;5.70;2.05;;;;;;;20.52;41.03;102389.97;5008919;28;20038;-64
2022/02/08 16:53:23;;;;;;;5.85;1.85;;;;;;;20.49;41.07;102380.53;4989545;28;20038;-64
2022/02/08 16:56:01;;;;;;;9.98;2.78;;;;;;;20.63;40.74;102400.34;5014781;28;20088;-63
2022/02/08 16:58:52;;;;;;;8.85;2.50;;;;;;;20.65;40.68;102401.06;4994234;28;20091;-64
2022/02/08 17:01:21;;;;;;;8.27;2.10;;;;;;;20.70;40.50;102406.75;5009697;28;20439;-63
2022/02/08 17:03:48;;;;;;;9.45;2.58;;;;;;;20.69;40.47;102391.84;5008679;28;20144;-64
2022/02/08 17:06:18;;;;;;;7.95;2.10;;;;;;;20.68;40.62;102392.84;5007347;28;20045;-63
2022/02/08 17:08:44;;;;;;;8.13;2.40;;;;;;;20.64;40.63;102394.09;4993790;28;20037;-63
2022/02/08 17:11:15;;;;;;;9.82;2.53;;;;;;;20.49;40.87;102391.13;5018851;28;20746;-64
2022/02/08 17:16:17;;;;;;;8.77;2.80;;;;;;;20.58;41.04;102401.78;5021549;28;20049;-66
2022/02/08 17:44:57;;;;;;;10.40;2.42;;;;;;;20.77;40.42;102426.34;4993120;28;20542;-65
2022/02/08 17:45:58;;;;;;;8.45;2.50;;;;;;;20.71;40.58;102419.00;5020586;28;20523;-66
2022/02/08 17:48:23;;;;;;;7.05;2.58;;;;;;;20.66;40.60;102415.13;4993571;28;20056;-65
2022/02/08 17:50:49;;;;;;;7.85;2.70;;;;;;;20.77;40.52;102421.06;5017933;28;20037;-66
2022/02/08 17:53:18;;;;;;;7.18;2.65;;;;;;;20.83;40.40;102416.16;4990567;28;20041;-65
2022/02/08 17:55:43;;;;;;;7.85;2.72;;;;;;;20.80;40.29;102420.75;5017852;28;20029;-65
2022/02/08 17:58:09;;;;;;;9.15;2.50;;;;;;;20.84;40.22;102417.84;4993726;28;20114;-65
2022/02/08 18:00:36;;;;;;;9.52;2.72;;;;;;;20.84;40.25;102421.31;5020004;28;20065;-65
2022/02/08 18:03:05;;;;;;;5.75;2.58;;;;;;;20.83;40.11;102417.00;4994844;28;20045;-65
2022/02/08 18:05:31;;;;;;;7.35;3.10;;;;;;;20.77;40.42;102412.28;5011630;28;20163;-65
2022/02/08 18:07:57;;;;;;;6.47;2.60;;;;;;;20.76;40.39;102406.16;5007817;28;20064;-65
2022/02/08 18:10:25;;;;;;;7.88;2.50;;;;;;;20.67;40.72;102401.75;5019325;28;20063;-65
2022/02/08 18:12:54;;;;;;;9.02;2.90;;;;;;;20.70;40.80;102408.56;4996109;28;20099;-65
2022/02/08 18:15:21;;;;;;;5.35;2.47;;;;;;;20.70;40.52;102403.28;5021131;28;20647;-66
2022/02/08 18:17:57;;;;;;;8.55;2.85;;;;;;;20.72;40.51;102403.94;4993997;28;20396;-65
2022/02/08 18:20:30;;;;;;;9.43;2.97;;;;;;;20.79;40.42;102397.06;5013882;28;20072;-65
2022/02/08 18:23:17;;;;;;;5.57;2.50;;;;;;;20.75;40.24;102393.06;4993730;28;20053;-64
2022/02/08 18:28:44;;;;;;;5.10;2.35;;;;;;;20.86;40.29;102418.50;4983325;28;20037;-65